createdAt,value
2018-07-24T00:01:20.162Z,65.30
2018-07-24T00:03:54.772Z,65.60
2018-07-24T00:06:29.832Z,65.70
2018-07-24T00:09:04.439Z,65.70
2018-07-24T00:11:38.871Z,65.30
2018-07-24T00:14:12.767Z,65.30
2018-07-24T00:16:47.112Z,65.30
2018-07-24T00:19:21.199Z,65.30
2018-07-24T00:21:55.675Z,65.40
2018-07-24T00:24:29.894Z,65.30
2018-07-24T00:27:04.498Z,65.10
2018-07-24T00:32:11.849Z,64.90
2018-07-24T00:34:46.271Z,64.80
2018-07-24T00:37:20.510Z,64.80
2018-07-24T00:39:55.410Z,64.80
2018-07-24T00:42:30.806Z,64.60
2018-07-24T00:45:05.021Z,64.60
2018-07-24T00:50:11.852Z,64.80
2018-07-24T00:52:45.755Z,64.70
2018-07-24T00:55:21.519Z,64.70
2018-07-24T00:57:56.001Z,64.40
2018-07-24T01:00:30.070Z,64.20
2018-07-24T01:03:05.400Z,64.90
2018-07-24T01:05:53.243Z,64.10
2018-07-24T01:08:27.910Z,63.90
2018-07-24T01:11:07.100Z,63.80
2018-07-24T01:13:45.129Z,63.60
2018-07-24T01:16:20.155Z,64.30
2018-07-24T01:21:51.089Z,63.50
2018-07-24T01:24:25.439Z,63.20
2018-07-24T01:26:59.877Z,63.00
2018-07-24T01:29:34.051Z,62.90
2018-07-24T01:32:08.535Z,62.80
2018-07-24T01:34:42.894Z,63.10
2018-07-24T01:37:17.975Z,63.40
2018-07-24T01:39:52.718Z,63.10
2018-07-24T01:42:27.972Z,63.90
2018-07-24T01:45:04.431Z,62.80
2018-07-24T01:47:41.426Z,62.40
2018-07-24T01:50:20.425Z,62.20
2018-07-24T01:52:54.329Z,62.00
2018-07-24T01:55:28.232Z,61.40
2018-07-24T01:58:02.808Z,61.20
2018-07-24T02:00:36.804Z,61.30
2018-07-24T02:03:27.018Z,61.30
2018-07-24T02:08:40.618Z,61.10
2018-07-24T02:11:15.040Z,61.00
2018-07-24T02:13:49.297Z,61.30
2018-07-24T02:16:27.078Z,61.70
2018-07-24T02:19:01.476Z,61.40
2018-07-24T02:21:35.825Z,61.30
2018-07-24T02:24:10.116Z,61.30
2018-07-24T02:26:44.044Z,61.20
2018-07-24T02:29:17.956Z,61.30
2018-07-24T02:32:16.098Z,61.60
2018-07-24T02:34:56.697Z,62.10
2018-07-24T02:37:31.770Z,62.70
2018-07-24T02:40:05.790Z,63.00
2018-07-24T02:42:39.829Z,63.40
2018-07-24T02:45:13.812Z,63.50
2018-07-24T02:47:50.790Z,63.50
2018-07-24T02:50:24.812Z,63.30
2018-07-24T02:52:59.254Z,62.90
2018-07-24T02:55:33.482Z,62.60
2018-07-24T02:58:08.634Z,62.50
2018-07-24T03:00:42.627Z,61.50
2018-07-24T03:03:16.805Z,62.90
2018-07-24T03:05:50.820Z,61.70
2018-07-24T03:08:25.367Z,61.50
2018-07-24T03:10:59.221Z,61.00
2018-07-24T03:16:06.084Z,60.20
2018-07-24T03:18:40.577Z,59.80
2018-07-24T03:21:15.145Z,59.80
2018-07-24T03:23:49.491Z,59.30
2018-07-24T03:26:24.054Z,59.80
2018-07-24T03:28:58.178Z,59.00
2018-07-24T03:31:32.259Z,58.60
2018-07-24T03:34:06.963Z,58.60
2018-07-24T03:36:41.922Z,58.20
2018-07-24T03:39:16.394Z,58.30
2018-07-24T03:44:23.387Z,58.30
2018-07-24T03:46:57.919Z,58.40
2018-07-24T03:49:32.080Z,58.30
2018-07-24T03:52:07.892Z,58.30
2018-07-24T03:54:43.701Z,58.40
2018-07-24T03:57:17.627Z,59.00
2018-07-24T03:59:51.676Z,58.50
2018-07-24T04:02:26.304Z,58.40
2018-07-24T04:05:01.514Z,58.30
2018-07-24T04:07:36.851Z,58.40
2018-07-24T04:10:10.954Z,58.40
2018-07-24T04:12:45.666Z,58.30
2018-07-24T04:15:21.050Z,58.10
2018-07-24T04:17:55.623Z,57.80
2018-07-24T04:20:30.219Z,57.70
2018-07-24T04:23:04.950Z,57.90
2018-07-24T04:25:39.445Z,57.70
2018-07-24T04:28:14.006Z,57.90
2018-07-24T04:30:48.619Z,57.90
2018-07-24T04:33:23.983Z,57.60
2018-07-24T04:35:58.463Z,57.40
2018-07-24T04:41:09.248Z,57.40
2018-07-24T04:51:21.810Z,57.20
2018-07-24T04:53:55.588Z,57.40
2018-07-24T04:56:30.412Z,57.60
2018-07-24T04:59:04.352Z,57.60
2018-07-24T05:01:38.698Z,57.80
2018-07-24T05:04:12.909Z,57.80
2018-07-24T05:09:20.321Z,57.90
2018-07-24T05:11:54.585Z,57.90
2018-07-24T05:14:29.009Z,57.80
2018-07-24T05:17:03.125Z,57.90
2018-07-24T05:56:08.897Z,57.90
